sensor_id;sensor_type;location;lat;lon;timestamp;temperature;humidity
16315;DHT22;8266;52.150;4.768;2023-02-01T00:01:19;9.20;99.90
16315;DHT22;8266;52.150;4.768;2023-02-01T00:03:46;9.20;99.90
16315;DHT22;8266;52.150;4.768;2023-02-01T00:06:13;9.20;99.90
16315;DHT22;8266;52.150;4.768;2023-02-01T00:08:40;9.20;99.90
16315;DHT22;8266;52.150;4.768;2023-02-01T00:11:09;9.30;99.90
16315;DHT22;8266;52.150;4.768;2023-02-01T00:13:39;9.30;99.90
16315;DHT22;8266;52.150;4.768;2023-02-01T00:16:08;9.30;99.90
16315;DHT22;8266;52.150;4.768;2023-02-01T00:18:36;9.30;99.90
16315;DHT22;8266;52.150;4.768;2023-02-01T00:21:03;9.30;99.90
16315;DHT22;8266;52.150;4.768;2023-02-01T00:23:32;9.30;99.90
16315;DHT22;8266;52.150;4.768;2023-02-01T00:26:00;9.30;99.90
16315;DHT22;8266;52.150;4.768;2023-02-01T00:28:27;9.30;99.90
16315;DHT22;8266;52.150;4.768;2023-02-01T00:30:59;9.30;99.90
16315;DHT22;8266;52.150;4.768;2023-02-01T00:33:27;9.30;99.90
16315;DHT22;8266;52.150;4.768;2023-02-01T00:35:56;9.30;99.90
16315;DHT22;8266;52.150;4.768;2023-02-01T00:38:24;9.30;99.90
16315;DHT22;8266;52.150;4.768;2023-02-01T00:40:51;9.30;99.90
16315;DHT22;8266;52.150;4.768;2023-02-01T00:43:17;9.30;99.90
16315;DHT22;8266;52.150;4.768;2023-02-01T00:45:45;9.30;99.90
16315;DHT22;8266;52.150;4.768;2023-02-01T00:48:13;9.30;99.90
16315;DHT22;8266;52.150;4.768;2023-02-01T00:50:41;9.30;99.90
16315;DHT22;8266;52.150;4.768;2023-02-01T00:53:08;9.30;99.90
16315;DHT22;8266;52.150;4.768;2023-02-01T00:55:35;9.30;99.90
16315;DHT22;8266;52.150;4.768;2023-02-01T00:58:02;9.30;99.90
16315;DHT22;8266;52.150;4.768;2023-02-01T01:00:31;9.20;99.90
16315;DHT22;8266;52.150;4.768;2023-02-01T01:02:58;9.20;99.90
16315;DHT22;8266;52.150;4.768;2023-02-01T01:05:26;9.20;99.90
16315;DHT22;8266;52.150;4.768;2023-02-01T01:07:54;9.20;99.90
16315;DHT22;8266;52.150;4.768;2023-02-01T01:10:21;9.20;99.90
16315;DHT22;8266;52.150;4.768;2023-02-01T01:12:48;9.20;99.90
16315;DHT22;8266;52.150;4.768;2023-02-01T01:15:16;9.20;99.90
16315;DHT22;8266;52.150;4.768;2023-02-01T01:17:43;9.20;99.90
16315;DHT22;8266;52.150;4.768;2023-02-01T01:20:11;9.20;99.90
16315;DHT22;8266;52.150;4.768;2023-02-01T01:22:40;9.20;99.90
16315;DHT22;8266;52.150;4.768;2023-02-01T01:25:07;9.20;99.90
16315;DHT22;8266;52.150;4.768;2023-02-01T01:27:34;9.20;99.90
16315;DHT22;8266;52.150;4.768;2023-02-01T01:30:01;9.30;99.90
16315;DHT22;8266;52.150;4.768;2023-02-01T01:32:28;9.30;99.90
16315;DHT22;8266;52.150;4.768;2023-02-01T01:34:54;9.30;99.90
16315;DHT22;8266;52.150;4.768;2023-02-01T01:37:21;9.30;99.90
16315;DHT22;8266;52.150;4.768;2023-02-01T01:39:50;9.40;99.90
16315;DHT22;8266;52.150;4.768;2023-02-01T01:42:17;9.40;99.90
16315;DHT22;8266;52.150;4.768;2023-02-01T01:44:58;9.40;99.90
16315;DHT22;8266;52.150;4.768;2023-02-01T01:47:27;9.40;99.90
16315;DHT22;8266;52.150;4.768;2023-02-01T01:49:56;9.40;99.90
16315;DHT22;8266;52.150;4.768;2023-02-01T01:52:23;9.50;99.90
16315;DHT22;8266;52.150;4.768;2023-02-01T01:54:53;9.50;99.90
16315;DHT22;8266;52.150;4.768;2023-02-01T01:57:24;9.60;99.90
16315;DHT22;8266;52.150;4.768;2023-02-01T01:59:56;9.60;99.90
16315;DHT22;8266;52.150;4.768;2023-02-01T02:02:26;9.60;99.90
16315;DHT22;8266;52.150;4.768;2023-02-01T02:04:53;9.60;99.90
16315;DHT22;8266;52.150;4.768;2023-02-01T02:07:24;9.70;99.90
16315;DHT22;8266;52.150;4.768;2023-02-01T02:09:54;9.70;99.90
16315;DHT22;8266;52.150;4.768;2023-02-01T02:12:21;9.70;99.90
16315;DHT22;8266;52.150;4.768;2023-02-01T02:14:48;9.70;99.90
16315;DHT22;8266;52.150;4.768;2023-02-01T02:17:28;9.70;99.90
16315;DHT22;8266;52.150;4.768;2023-02-01T02:20:24;9.80;99.90
16315;DHT22;8266;52.150;4.768;2023-02-01T02:26:35;9.80;99.90
16315;DHT22;8266;52.150;4.768;2023-02-01T02:29:41;9.80;99.90
16315;DHT22;8266;52.150;4.768;2023-02-01T02:32:30;9.80;99.90
16315;DHT22;8266;52.150;4.768;2023-02-01T02:35:14;9.80;99.90
16315;DHT22;8266;52.150;4.768;2023-02-01T02:37:47;9.80;99.90
16315;DHT22;8266;52.150;4.768;2023-02-01T02:40:25;9.90;99.90
16315;DHT22;8266;52.150;4.768;2023-02-01T02:43:00;9.90;99.90
16315;DHT22;8266;52.150;4.768;2023-02-01T02:45:54;9.90;99.90
16315;DHT22;8266;52.150;4.768;2023-02-01T02:48:44;9.90;99.90
16315;DHT22;8266;52.150;4.768;2023-02-01T02:51:16;9.90;99.90
16315;DHT22;8266;52.150;4.768;2023-02-01T02:54:05;9.90;99.90
16315;DHT22;8266;52.150;4.768;2023-02-01T02:56:53;9.90;99.90
16315;DHT22;8266;52.150;4.768;2023-02-01T02:59:40;9.90;99.90
16315;DHT22;8266;52.150;4.768;2023-02-01T03:02:26;9.90;99.90
16315;DHT22;8266;52.150;4.768;2023-02-01T03:05:11;9.80;99.90
16315;DHT22;8266;52.150;4.768;2023-02-01T03:08:01;9.90;99.90
16315;DHT22;8266;52.150;4.768;2023-02-01T03:10:35;9.80;99.90
16315;DHT22;8266;52.150;4.768;2023-02-01T03:13:06;9.80;99.90
16315;DHT22;8266;52.150;4.768;2023-02-01T03:15:37;9.70;99.90
16315;DHT22;8266;52.150;4.768;2023-02-01T03:18:11;9.70;99.90
16315;DHT22;8266;52.150;4.768;2023-02-01T03:20:40;9.70;99.90
16315;DHT22;8266;52.150;4.768;2023-02-01T03:23:13;9.70;99.90
16315;DHT22;8266;52.150;4.768;2023-02-01T03:25:41;9.60;99.90
16315;DHT22;8266;52.150;4.768;2023-02-01T03:28:10;9.60;99.90
16315;DHT22;8266;52.150;4.768;2023-02-01T03:30:40;9.60;99.90
16315;DHT22;8266;52.150;4.768;2023-02-01T03:33:11;9.50;99.90
16315;DHT22;8266;52.150;4.768;2023-02-01T03:35:54;9.50;99.90
16315;DHT22;8266;52.150;4.768;2023-02-01T03:38:27;9.50;99.90
16315;DHT22;8266;52.150;4.768;2023-02-01T03:41:01;9.50;99.90
16315;DHT22;8266;52.150;4.768;2023-02-01T03:43:36;9.50;99.90
16315;DHT22;8266;52.150;4.768;2023-02-01T03:46:09;9.40;99.90
16315;DHT22;8266;52.150;4.768;2023-02-01T03:48:39;9.50;99.90
16315;DHT22;8266;52.150;4.768;2023-02-01T03:51:07;9.50;99.90
16315;DHT22;8266;52.150;4.768;2023-02-01T03:53:36;9.50;99.90
16315;DHT22;8266;52.150;4.768;2023-02-01T03:56:06;9.50;99.90
16315;DHT22;8266;52.150;4.768;2023-02-01T03:58:33;9.50;99.90
16315;DHT22;8266;52.150;4.768;2023-02-01T04:01:00;9.50;99.90
16315;DHT22;8266;52.150;4.768;2023-02-01T04:03:28;9.60;99.90
16315;DHT22;8266;52.150;4.768;2023-02-01T04:05:55;9.60;99.90
16315;DHT22;8266;52.150;4.768;2023-02-01T04:08:23;9.60;99.90
16315;DHT22;8266;52.150;4.768;2023-02-01T04:10:52;9.60;99.90
16315;DHT22;8266;52.150;4.768;2023-02-01T04:13:19;9.60;99.90
16315;DHT22;8266;52.150;4.768;2023-02-01T04:15:47;9.60;99.90
16315;DHT22;8266;52.150;4.768;2023-02-01T04:18:15;9.60;99.90
16315;DHT22;8266;52.150;4.768;2023-02-01T04:20:43;9.60;99.90
16315;DHT22;8266;52.150;4.768;2023-02-01T04:23:10;9.60;99.90
16315;DHT22;8266;52.150;4.768;2023-02-01T04:25:37;9.60;99.90
16315;DHT22;8266;52.150;4.768;2023-02-01T04:28:06;9.60;99.90
16315;DHT22;8266;52.150;4.768;2023-02-01T04:30:33;9.60;99.90
16315;DHT22;8266;52.150;4.768;2023-02-01T04:33:00;9.60;99.90
16315;DHT22;8266;52.150;4.768;2023-02-01T04:35:30;9.60;99.90
16315;DHT22;8266;52.150;4.768;2023-02-01T04:37:57;9.50;99.90
16315;DHT22;8266;52.150;4.768;2023-02-01T04:40:25;9.50;99.90
16315;DHT22;8266;52.150;4.768;2023-02-01T04:42:52;9.40;99.90
16315;DHT22;8266;52.150;4.768;2023-02-01T04:45:20;9.40;99.90
16315;DHT22;8266;52.150;4.768;2023-02-01T04:47:47;9.40;99.90
16315;DHT22;8266;52.150;4.768;2023-02-01T04:50:15;9.30;99.90
16315;DHT22;8266;52.150;4.768;2023-02-01T04:52:42;9.30;99.90
16315;DHT22;8266;52.150;4.768;2023-02-01T04:55:11;9.30;99.90
16315;DHT22;8266;52.150;4.768;2023-02-01T04:57:38;9.30;99.90
16315;DHT22;8266;52.150;4.768;2023-02-01T05:00:06;9.20;99.90
16315;DHT22;8266;52.150;4.768;2023-02-01T05:02:35;9.20;99.90
16315;DHT22;8266;52.150;4.768;2023-02-01T05:05:03;9.20;99.90
16315;DHT22;8266;52.150;4.768;2023-02-01T05:07:30;9.20;99.90
16315;DHT22;8266;52.150;4.768;2023-02-01T05:09:57;9.20;99.90
16315;DHT22;8266;52.150;4.768;2023-02-01T05:12:24;9.10;99.90
16315;DHT22;8266;52.150;4.768;2023-02-01T05:15:09;9.10;99.90
16315;DHT22;8266;52.150;4.768;2023-02-01T05:17:37;9.10;99.90
16315;DHT22;8266;52.150;4.768;2023-02-01T05:20:09;9.10;99.90
16315;DHT22;8266;52.150;4.768;2023-02-01T05:22:36;9.10;99.90
16315;DHT22;8266;52.150;4.768;2023-02-01T05:25:04;9.10;99.90
16315;DHT22;8266;52.150;4.768;2023-02-01T05:27:31;9.10;99.90
16315;DHT22;8266;52.150;4.768;2023-02-01T05:29:58;9.10;99.90
16315;DHT22;8266;52.150;4.768;2023-02-01T05:32:25;9.10;99.90
16315;DHT22;8266;52.150;4.768;2023-02-01T05:34:53;9.10;99.90
16315;DHT22;8266;52.150;4.768;2023-02-01T05:37:20;9.10;99.90
16315;DHT22;8266;52.150;4.768;2023-02-01T05:39:47;9.00;99.90
16315;DHT22;8266;52.150;4.768;2023-02-01T05:42:15;9.10;99.90
16315;DHT22;8266;52.150;4.768;2023-02-01T05:44:42;9.10;99.90
16315;DHT22;8266;52.150;4.768;2023-02-01T05:47:08;9.10;99.90
16315;DHT22;8266;52.150;4.768;2023-02-01T05:49:36;9.10;99.90
16315;DHT22;8266;52.150;4.768;2023-02-01T05:52:04;9.20;99.90
16315;DHT22;8266;52.150;4.768;2023-02-01T05:54:31;9.20;99.90
16315;DHT22;8266;52.150;4.768;2023-02-01T05:56:58;9.20;99.90
16315;DHT22;8266;52.150;4.768;2023-02-01T05:59:25;9.20;99.90
16315;DHT22;8266;52.150;4.768;2023-02-01T06:01:52;9.10;99.90
16315;DHT22;8266;52.150;4.768;2023-02-01T06:04:19;9.10;99.90
16315;DHT22;8266;52.150;4.768;2023-02-01T06:06:46;9.10;99.90
16315;DHT22;8266;52.150;4.768;2023-02-01T06:09:17;9.10;99.90
16315;DHT22;8266;52.150;4.768;2023-02-01T06:11:44;9.10;99.90
16315;DHT22;8266;52.150;4.768;2023-02-01T06:14:11;9.10;99.90
16315;DHT22;8266;52.150;4.768;2023-02-01T06:16:38;9.10;99.90
16315;DHT22;8266;52.150;4.768;2023-02-01T06:19:05;9.20;99.90
16315;DHT22;8266;52.150;4.768;2023-02-01T06:21:32;9.20;99.90
16315;DHT22;8266;52.150;4.768;2023-02-01T06:23:59;9.20;99.90
16315;DHT22;8266;52.150;4.768;2023-02-01T06:26:28;9.10;99.90
16315;DHT22;8266;52.150;4.768;2023-02-01T06:28:55;9.10;99.90
16315;DHT22;8266;52.150;4.768;2023-02-01T06:31:22;9.20;99.90
16315;DHT22;8266;52.150;4.768;2023-02-01T06:33:51;9.20;99.90
16315;DHT22;8266;52.150;4.768;2023-02-01T06:36:19;9.20;99.90
16315;DHT22;8266;52.150;4.768;2023-02-01T06:38:47;9.10;99.90
16315;DHT22;8266;52.150;4.768;2023-02-01T06:41:14;9.20;99.90
16315;DHT22;8266;52.150;4.768;2023-02-01T06:43:43;9.20;99.90
16315;DHT22;8266;52.150;4.768;2023-02-01T06:46:12;9.20;99.90
16315;DHT22;8266;52.150;4.768;2023-02-01T06:48:39;9.20;99.90
16315;DHT22;8266;52.150;4.768;2023-02-01T06:51:20;9.30;99.90
16315;DHT22;8266;52.150;4.768;2023-02-01T06:53:47;9.30;99.90
16315;DHT22;8266;52.150;4.768;2023-02-01T06:56:14;9.30;99.90
16315;DHT22;8266;52.150;4.768;2023-02-01T06:58:43;9.30;99.90
16315;DHT22;8266;52.150;4.768;2023-02-01T07:01:11;9.30;99.90
16315;DHT22;8266;52.150;4.768;2023-02-01T07:03:38;9.30;99.90
16315;DHT22;8266;52.150;4.768;2023-02-01T07:06:06;9.40;99.90
16315;DHT22;8266;52.150;4.768;2023-02-01T07:08:35;9.40;99.90
16315;DHT22;8266;52.150;4.768;2023-02-01T07:11:03;9.40;99.90
16315;DHT22;8266;52.150;4.768;2023-02-01T07:13:30;9.40;99.90
16315;DHT22;8266;52.150;4.768;2023-02-01T07:15:59;9.50;99.90
16315;DHT22;8266;52.150;4.768;2023-02-01T07:18:27;9.50;99.90
16315;DHT22;8266;52.150;4.768;2023-02-01T07:20:54;9.50;99.90
16315;DHT22;8266;52.150;4.768;2023-02-01T07:23:22;9.50;99.90
16315;DHT22;8266;52.150;4.768;2023-02-01T07:25:53;9.50;99.90
16315;DHT22;8266;52.150;4.768;2023-02-01T07:28:21;9.50;99.90
16315;DHT22;8266;52.150;4.768;2023-02-01T07:30:48;9.50;99.90
16315;DHT22;8266;52.150;4.768;2023-02-01T07:33:18;9.40;99.90
16315;DHT22;8266;52.150;4.768;2023-02-01T07:35:46;9.40;99.90
16315;DHT22;8266;52.150;4.768;2023-02-01T07:38:13;9.40;99.90
16315;DHT22;8266;52.150;4.768;2023-02-01T07:40:41;9.40;99.90
16315;DHT22;8266;52.150;4.768;2023-02-01T07:43:08;9.40;99.90
16315;DHT22;8266;52.150;4.768;2023-02-01T07:45:35;9.40;99.90
16315;DHT22;8266;52.150;4.768;2023-02-01T07:48:03;9.40;99.90
16315;DHT22;8266;52.150;4.768;2023-02-01T07:50:31;9.30;99.90
16315;DHT22;8266;52.150;4.768;2023-02-01T07:52:58;9.30;99.90
16315;DHT22;8266;52.150;4.768;2023-02-01T07:55:26;9.30;99.90
16315;DHT22;8266;52.150;4.768;2023-02-01T07:57:56;9.30;99.90
16315;DHT22;8266;52.150;4.768;2023-02-01T08:00:24;9.30;99.90
16315;DHT22;8266;52.150;4.768;2023-02-01T08:03:09;9.30;99.90
16315;DHT22;8266;52.150;4.768;2023-02-01T08:05:37;9.30;99.90
16315;DHT22;8266;52.150;4.768;2023-02-01T08:08:05;9.30;99.90
16315;DHT22;8266;52.150;4.768;2023-02-01T08:10:32;9.30;99.90
16315;DHT22;8266;52.150;4.768;2023-02-01T08:13:01;9.30;99.90
16315;DHT22;8266;52.150;4.768;2023-02-01T08:15:29;9.30;99.90
16315;DHT22;8266;52.150;4.768;2023-02-01T08:17:56;9.30;99.90
16315;DHT22;8266;52.150;4.768;2023-02-01T08:20:24;9.30;99.90
16315;DHT22;8266;52.150;4.768;2023-02-01T08:22:54;9.30;99.90
16315;DHT22;8266;52.150;4.768;2023-02-01T08:25:22;9.30;99.90
16315;DHT22;8266;52.150;4.768;2023-02-01T08:27:50;9.30;99.90
16315;DHT22;8266;52.150;4.768;2023-02-01T08:30:17;9.40;99.90
16315;DHT22;8266;52.150;4.768;2023-02-01T08:32:44;9.40;99.90
16315;DHT22;8266;52.150;4.768;2023-02-01T08:35:11;9.40;99.90
16315;DHT22;8266;52.150;4.768;2023-02-01T08:37:38;9.50;99.90
16315;DHT22;8266;52.150;4.768;2023-02-01T08:40:08;9.60;99.90
16315;DHT22;8266;52.150;4.768;2023-02-01T08:42:35;9.70;99.90
16315;DHT22;8266;52.150;4.768;2023-02-01T08:45:17;9.70;99.90
16315;DHT22;8266;52.150;4.768;2023-02-01T08:47:45;9.90;99.90
16315;DHT22;8266;52.150;4.768;2023-02-01T08:50:13;10.10;99.90
16315;DHT22;8266;52.150;4.768;2023-02-01T08:52:41;10.20;99.90
16315;DHT22;8266;52.150;4.768;2023-02-01T08:55:09;10.40;99.90
16315;DHT22;8266;52.150;4.768;2023-02-01T08:57:37;10.50;99.90
16315;DHT22;8266;52.150;4.768;2023-02-01T09:00:07;10.60;99.90
16315;DHT22;8266;52.150;4.768;2023-02-01T09:02:35;10.70;99.90
16315;DHT22;8266;52.150;4.768;2023-02-01T09:05:02;10.80;99.90
16315;DHT22;8266;52.150;4.768;2023-02-01T09:07:30;10.90;99.90
16315;DHT22;8266;52.150;4.768;2023-02-01T09:09:57;11.00;99.90
16315;DHT22;8266;52.150;4.768;2023-02-01T09:12:28;11.10;99.90
16315;DHT22;8266;52.150;4.768;2023-02-01T09:14:56;11.10;99.90
16315;DHT22;8266;52.150;4.768;2023-02-01T09:17:25;11.20;99.90
16315;DHT22;8266;52.150;4.768;2023-02-01T09:19:52;11.20;99.90
16315;DHT22;8266;52.150;4.768;2023-02-01T09:22:19;11.20;99.90
16315;DHT22;8266;52.150;4.768;2023-02-01T09:24:46;11.10;99.90
16315;DHT22;8266;52.150;4.768;2023-02-01T09:27:13;11.10;99.90
16315;DHT22;8266;52.150;4.768;2023-02-01T09:29:41;11.10;99.90
16315;DHT22;8266;52.150;4.768;2023-02-01T09:32:08;11.00;99.90
16315;DHT22;8266;52.150;4.768;2023-02-01T09:34:35;11.00;99.90
16315;DHT22;8266;52.150;4.768;2023-02-01T09:37:02;11.00;99.90
16315;DHT22;8266;52.150;4.768;2023-02-01T09:39:29;10.90;99.90
16315;DHT22;8266;52.150;4.768;2023-02-01T09:42:04;10.90;99.90
16315;DHT22;8266;52.150;4.768;2023-02-01T09:44:46;10.90;99.90
16315;DHT22;8266;52.150;4.768;2023-02-01T09:47:18;10.90;99.90
16315;DHT22;8266;52.150;4.768;2023-02-01T09:49:51;10.80;99.90
16315;DHT22;8266;52.150;4.768;2023-02-01T09:52:26;10.80;99.90
16315;DHT22;8266;52.150;4.768;2023-02-01T09:54:57;10.80;99.90
16315;DHT22;8266;52.150;4.768;2023-02-01T09:57:31;10.80;99.90
16315;DHT22;8266;52.150;4.768;2023-02-01T10:00:09;10.70;99.90
16315;DHT22;8266;52.150;4.768;2023-02-01T10:02:42;10.70;99.90
16315;DHT22;8266;52.150;4.768;2023-02-01T10:05:13;10.70;99.90
16315;DHT22;8266;52.150;4.768;2023-02-01T10:07:46;10.70;99.90
16315;DHT22;8266;52.150;4.768;2023-02-01T10:10:21;10.60;99.90
16315;DHT22;8266;52.150;4.768;2023-02-01T10:13:16;10.60;99.90
16315;DHT22;8266;52.150;4.768;2023-02-01T10:16:00;10.60;99.90
16315;DHT22;8266;52.150;4.768;2023-02-01T10:18:52;10.60;99.90
16315;DHT22;8266;52.150;4.768;2023-02-01T10:21:35;10.60;99.90
16315;DHT22;8266;52.150;4.768;2023-02-01T10:24:17;10.60;99.90
16315;DHT22;8266;52.150;4.768;2023-02-01T10:26:53;10.60;99.90
16315;DHT22;8266;52.150;4.768;2023-02-01T10:29:25;10.60;99.90
16315;DHT22;8266;52.150;4.768;2023-02-01T10:31:55;10.60;99.90
16315;DHT22;8266;52.150;4.768;2023-02-01T10:34:26;10.60;99.90
16315;DHT22;8266;52.150;4.768;2023-02-01T10:36:56;10.60;99.90
16315;DHT22;8266;52.150;4.768;2023-02-01T10:39:24;10.70;99.90
16315;DHT22;8266;52.150;4.768;2023-02-01T10:41:51;10.70;99.90
16315;DHT22;8266;52.150;4.768;2023-02-01T10:44:21;10.70;99.90
16315;DHT22;8266;52.150;4.768;2023-02-01T10:46:50;10.70;99.90
16315;DHT22;8266;52.150;4.768;2023-02-01T10:49:24;10.80;99.90
16315;DHT22;8266;52.150;4.768;2023-02-01T10:51:58;10.80;99.90
16315;DHT22;8266;52.150;4.768;2023-02-01T10:54:34;10.80;99.90
16315;DHT22;8266;52.150;4.768;2023-02-01T10:57:01;10.90;99.90
16315;DHT22;8266;52.150;4.768;2023-02-01T10:59:29;10.90;99.90
16315;DHT22;8266;52.150;4.768;2023-02-01T11:02:00;10.90;99.90
16315;DHT22;8266;52.150;4.768;2023-02-01T11:04:33;10.90;99.90
16315;DHT22;8266;52.150;4.768;2023-02-01T11:07:13;10.90;99.90
16315;DHT22;8266;52.150;4.768;2023-02-01T11:09:49;10.90;99.90
16315;DHT22;8266;52.150;4.768;2023-02-01T11:12:29;10.90;99.90
16315;DHT22;8266;52.150;4.768;2023-02-01T11:15:14;10.90;99.90
16315;DHT22;8266;52.150;4.768;2023-02-01T11:17:45;10.80;99.90
16315;DHT22;8266;52.150;4.768;2023-02-01T11:20:17;10.90;99.90
16315;DHT22;8266;52.150;4.768;2023-02-01T11:22:48;10.90;99.90
16315;DHT22;8266;52.150;4.768;2023-02-01T11:25:19;10.90;99.90
16315;DHT22;8266;52.150;4.768;2023-02-01T11:27:48;11.00;99.90
16315;DHT22;8266;52.150;4.768;2023-02-01T11:30:18;11.00;99.90
16315;DHT22;8266;52.150;4.768;2023-02-01T11:32:49;11.10;99.90
16315;DHT22;8266;52.150;4.768;2023-02-01T11:35:19;11.10;99.90
16315;DHT22;8266;52.150;4.768;2023-02-01T11:37:52;11.20;99.90
16315;DHT22;8266;52.150;4.768;2023-02-01T11:40:27;11.20;99.90
16315;DHT22;8266;52.150;4.768;2023-02-01T11:42:56;11.20;99.90
16315;DHT22;8266;52.150;4.768;2023-02-01T11:45:26;11.20;99.90
16315;DHT22;8266;52.150;4.768;2023-02-01T11:47:55;11.20;99.90
16315;DHT22;8266;52.150;4.768;2023-02-01T11:50:30;11.20;99.90
16315;DHT22;8266;52.150;4.768;2023-02-01T11:53:25;11.20;99.90
16315;DHT22;8266;52.150;4.768;2023-02-01T11:56:03;11.20;99.90
16315;DHT22;8266;52.150;4.768;2023-02-01T11:59:00;11.20;99.90
16315;DHT22;8266;52.150;4.768;2023-02-01T12:01:36;11.20;99.90
16315;DHT22;8266;52.150;4.768;2023-02-01T12:04:45;11.20;99.90
16315;DHT22;8266;52.150;4.768;2023-02-01T12:07:22;11.20;99.90
16315;DHT22;8266;52.150;4.768;2023-02-01T12:10:04;11.20;99.90
16315;DHT22;8266;52.150;4.768;2023-02-01T12:12:43;11.30;99.90
16315;DHT22;8266;52.150;4.768;2023-02-01T12:15:32;11.40;99.90
16315;DHT22;8266;52.150;4.768;2023-02-01T12:24:42;11.50;99.90
16315;DHT22;8266;52.150;4.768;2023-02-01T12:27:34;11.50;99.90
16315;DHT22;8266;52.150;4.768;2023-02-01T12:30:20;11.60;99.90
16315;DHT22;8266;52.150;4.768;2023-02-01T12:32:59;11.60;99.90
16315;DHT22;8266;52.150;4.768;2023-02-01T12:35:44;11.60;99.90
16315;DHT22;8266;52.150;4.768;2023-02-01T12:38:26;11.60;99.90
16315;DHT22;8266;52.150;4.768;2023-02-01T12:41:05;11.60;99.90
16315;DHT22;8266;52.150;4.768;2023-02-01T12:43:38;11.70;99.90
16315;DHT22;8266;52.150;4.768;2023-02-01T12:46:10;11.70;99.90
16315;DHT22;8266;52.150;4.768;2023-02-01T12:48:42;11.80;99.90
16315;DHT22;8266;52.150;4.768;2023-02-01T12:51:15;11.80;99.90
16315;DHT22;8266;52.150;4.768;2023-02-01T12:53:46;11.90;99.90
16315;DHT22;8266;52.150;4.768;2023-02-01T12:56:21;11.90;99.90
16315;DHT22;8266;52.150;4.768;2023-02-01T12:58:50;12.00;99.90
16315;DHT22;8266;52.150;4.768;2023-02-01T13:01:21;12.00;99.90
16315;DHT22;8266;52.150;4.768;2023-02-01T13:03:56;12.10;99.90
16315;DHT22;8266;52.150;4.768;2023-02-01T13:06:29;12.20;99.90
16315;DHT22;8266;52.150;4.768;2023-02-01T13:09:02;12.20;99.90
16315;DHT22;8266;52.150;4.768;2023-02-01T13:11:34;12.30;99.90
16315;DHT22;8266;52.150;4.768;2023-02-01T13:14:05;12.30;99.90
16315;DHT22;8266;52.150;4.768;2023-02-01T13:16:39;12.30;99.90
16315;DHT22;8266;52.150;4.768;2023-02-01T13:19:14;12.30;99.90
16315;DHT22;8266;52.150;4.768;2023-02-01T13:21:46;12.30;99.90
16315;DHT22;8266;52.150;4.768;2023-02-01T13:24:26;12.30;99.90
16315;DHT22;8266;52.150;4.768;2023-02-01T13:26:57;12.30;99.90
16315;DHT22;8266;52.150;4.768;2023-02-01T13:29:25;12.30;99.90
16315;DHT22;8266;52.150;4.768;2023-02-01T13:32:18;12.30;99.90
16315;DHT22;8266;52.150;4.768;2023-02-01T13:35:08;12.30;99.90
16315;DHT22;8266;52.150;4.768;2023-02-01T13:37:56;12.30;99.90
16315;DHT22;8266;52.150;4.768;2023-02-01T13:40:38;12.30;99.90
16315;DHT22;8266;52.150;4.768;2023-02-01T13:43:12;12.30;99.90
16315;DHT22;8266;52.150;4.768;2023-02-01T13:45:45;12.30;99.90
16315;DHT22;8266;52.150;4.768;2023-02-01T13:48:20;12.30;99.90
16315;DHT22;8266;52.150;4.768;2023-02-01T13:50:52;12.30;99.90
16315;DHT22;8266;52.150;4.768;2023-02-01T13:53:26;12.30;99.90
16315;DHT22;8266;52.150;4.768;2023-02-01T13:55:59;12.30;99.90
16315;DHT22;8266;52.150;4.768;2023-02-01T13:58:34;12.20;99.90
16315;DHT22;8266;52.150;4.768;2023-02-01T14:04:46;12.10;99.90
16315;DHT22;8266;52.150;4.768;2023-02-01T14:07:20;12.10;99.90
16315;DHT22;8266;52.150;4.768;2023-02-01T14:09:48;12.00;99.90
16315;DHT22;8266;52.150;4.768;2023-02-01T14:12:45;12.00;99.90
16315;DHT22;8266;52.150;4.768;2023-02-01T14:15:26;11.90;99.90
16315;DHT22;8266;52.150;4.768;2023-02-01T14:17:54;11.90;99.90
16315;DHT22;8266;52.150;4.768;2023-02-01T14:20:40;11.90;99.90
16315;DHT22;8266;52.150;4.768;2023-02-01T14:23:14;11.90;99.90
16315;DHT22;8266;52.150;4.768;2023-02-01T14:25:42;11.90;99.90
16315;DHT22;8266;52.150;4.768;2023-02-01T14:28:23;11.90;99.90
16315;DHT22;8266;52.150;4.768;2023-02-01T14:30:53;11.90;99.90
16315;DHT22;8266;52.150;4.768;2023-02-01T14:33:22;11.80;99.90
16315;DHT22;8266;52.150;4.768;2023-02-01T14:36:06;11.80;99.90
16315;DHT22;8266;52.150;4.768;2023-02-01T14:38:36;11.80;99.90
16315;DHT22;8266;52.150;4.768;2023-02-01T14:41:26;11.80;99.90
16315;DHT22;8266;52.150;4.768;2023-02-01T14:44:21;11.80;99.90
16315;DHT22;8266;52.150;4.768;2023-02-01T14:47:33;11.80;99.90
16315;DHT22;8266;52.150;4.768;2023-02-01T14:53:14;11.70;99.90
16315;DHT22;8266;52.150;4.768;2023-02-01T14:55:46;11.70;99.90
16315;DHT22;8266;52.150;4.768;2023-02-01T14:58:18;11.70;99.90
16315;DHT22;8266;52.150;4.768;2023-02-01T15:00:49;11.70;99.90
16315;DHT22;8266;52.150;4.768;2023-02-01T15:03:31;11.70;99.90
16315;DHT22;8266;52.150;4.768;2023-02-01T15:06:01;11.70;99.90
16315;DHT22;8266;52.150;4.768;2023-02-01T15:08:33;11.70;99.90
16315;DHT22;8266;52.150;4.768;2023-02-01T15:11:10;11.70;99.90
16315;DHT22;8266;52.150;4.768;2023-02-01T15:13:39;11.70;99.90
16315;DHT22;8266;52.150;4.768;2023-02-01T15:16:11;11.60;99.90
16315;DHT22;8266;52.150;4.768;2023-02-01T15:18:40;11.60;99.90
16315;DHT22;8266;52.150;4.768;2023-02-01T15:21:16;11.60;99.90
16315;DHT22;8266;52.150;4.768;2023-02-01T15:23:43;11.50;99.90
16315;DHT22;8266;52.150;4.768;2023-02-01T15:26:25;11.50;99.90
16315;DHT22;8266;52.150;4.768;2023-02-01T15:28:52;11.50;99.90
16315;DHT22;8266;52.150;4.768;2023-02-01T15:31:32;11.50;99.90
16315;DHT22;8266;52.150;4.768;2023-02-01T15:34:01;11.40;99.90
16315;DHT22;8266;52.150;4.768;2023-02-01T15:36:28;11.40;99.90
16315;DHT22;8266;52.150;4.768;2023-02-01T15:39:15;11.40;99.90
16315;DHT22;8266;52.150;4.768;2023-02-01T15:41:48;11.30;99.90
16315;DHT22;8266;52.150;4.768;2023-02-01T15:44:20;11.40;99.90
16315;DHT22;8266;52.150;4.768;2023-02-01T15:46:49;11.30;99.90
16315;DHT22;8266;52.150;4.768;2023-02-01T15:49:24;11.30;99.90
16315;DHT22;8266;52.150;4.768;2023-02-01T15:51:54;11.30;99.90
16315;DHT22;8266;52.150;4.768;2023-02-01T15:54:24;11.20;99.90
16315;DHT22;8266;52.150;4.768;2023-02-01T15:56:54;11.20;99.90
16315;DHT22;8266;52.150;4.768;2023-02-01T15:59:24;11.20;99.90
16315;DHT22;8266;52.150;4.768;2023-02-01T16:01:52;11.20;99.90
16315;DHT22;8266;52.150;4.768;2023-02-01T16:04:23;11.20;99.90
16315;DHT22;8266;52.150;4.768;2023-02-01T16:06:52;11.20;99.90
16315;DHT22;8266;52.150;4.768;2023-02-01T16:09:20;11.20;99.90
16315;DHT22;8266;52.150;4.768;2023-02-01T16:11:53;11.20;99.90
16315;DHT22;8266;52.150;4.768;2023-02-01T16:14:21;11.20;99.90
16315;DHT22;8266;52.150;4.768;2023-02-01T16:16:49;11.20;99.90
16315;DHT22;8266;52.150;4.768;2023-02-01T16:19:16;11.20;99.90
16315;DHT22;8266;52.150;4.768;2023-02-01T16:21:45;11.20;99.90
16315;DHT22;8266;52.150;4.768;2023-02-01T16:24:12;11.20;99.90
16315;DHT22;8266;52.150;4.768;2023-02-01T16:26:39;11.30;99.90
16315;DHT22;8266;52.150;4.768;2023-02-01T16:29:06;11.30;99.90
16315;DHT22;8266;52.150;4.768;2023-02-01T16:31:36;11.30;99.90
16315;DHT22;8266;52.150;4.768;2023-02-01T16:34:04;11.30;99.90
16315;DHT22;8266;52.150;4.768;2023-02-01T16:36:32;11.30;99.90
16315;DHT22;8266;52.150;4.768;2023-02-01T16:39:01;11.30;99.90
16315;DHT22;8266;52.150;4.768;2023-02-01T16:41:29;11.30;99.90